Time;durP1;ratioP1;P1;durP2;ratioP2;P2;SDS_P1;SDS_P2;PMS_P1;PMS_P2;Temp;Humidity;BMP_temperature;BMP_pressure;BME280_temperature;BME280_humidity;BME280_pressure;Samples;Min_cycle;Max_cycle;Signal;HPM_P1;HPM_P2
2022/04/30 00:00:50;;;;;;;7.50;5.00;;;9.70;99.90;;;;;;5056675;28;20836;-83
2022/04/30 00:03:17;;;;;;;8.17;4.90;;;9.70;99.90;;;;;;5066062;28;20503;-82
2022/04/30 00:05:44;;;;;;;8.93;5.20;;;9.70;99.90;;;;;;5071881;28;20483;-82
2022/04/30 00:08:10;;;;;;;7.43;4.50;;;9.70;99.90;;;;;;5069306;28;20580;-82
2022/04/30 00:10:38;;;;;;;6.10;3.93;;;9.70;99.90;;;;;;5052330;28;20456;-83
2022/04/30 00:13:10;;;;;;;6.07;4.40;;;9.80;99.90;;;;;;5057006;28;20461;-81
2022/04/30 00:15:37;;;;;;;6.40;4.27;;;9.80;99.90;;;;;;5041715;28;20896;-83
2022/04/30 00:18:06;;;;;;;6.20;4.50;;;9.90;99.90;;;;;;5041236;28;20468;-82
2022/04/30 00:20:36;;;;;;;8.67;4.03;;;9.90;99.90;;;;;;5041084;28;20466;-82
2022/04/30 00:23:03;;;;;;;14.37;4.57;;;9.90;99.90;;;;;;5041069;28;20476;-82
2022/04/30 00:25:30;;;;;;;10.97;5.10;;;9.90;99.90;;;;;;5041335;28;20441;-82
2022/04/30 00:27:56;;;;;;;8.20;4.67;;;9.80;99.90;;;;;;5040625;28;20469;-81
2022/04/30 00:30:23;;;;;;;6.03;4.03;;;9.70;99.90;;;;;;5041100;28;20448;-82
2022/04/30 00:32:51;;;;;;;6.10;5.13;;;9.70;99.90;;;;;;5039202;28;20456;-83
2022/04/30 00:35:19;;;;;;;7.37;4.80;;;9.60;99.90;;;;;;5040620;28;20450;-84
2022/04/30 00:37:46;;;;;;;7.10;3.93;;;9.50;99.90;;;;;;5039975;28;20475;-85
2022/04/30 00:40:13;;;;;;;6.87;4.60;;;9.40;99.90;;;;;;5039861;28;20474;-85
2022/04/30 00:42:40;;;;;;;7.90;5.00;;;9.40;99.90;;;;;;5039389;28;20483;-84
2022/04/30 00:45:08;;;;;;;5.50;4.30;;;9.30;99.90;;;;;;5040098;28;20458;-83
2022/04/30 00:47:37;;;;;;;7.67;4.87;;;9.30;99.90;;;;;;5037738;28;20478;-83
2022/04/30 00:50:04;;;;;;;9.13;5.50;;;9.20;99.90;;;;;;5039889;28;20517;-83
2022/04/30 00:52:34;;;;;;;7.40;4.47;;;9.00;99.90;;;;;;5040022;28;20453;-84
2022/04/30 00:55:03;;;;;;;5.53;4.30;;;9.00;99.90;;;;;;5039711;28;20458;-85
2022/04/30 00:57:32;;;;;;;8.33;4.83;;;9.00;99.90;;;;;;5039601;28;20493;-83
2022/04/30 01:00:00;;;;;;;6.50;4.73;;;8.90;99.90;;;;;;5042069;28;20458;-84
2022/04/30 01:02:29;;;;;;;7.10;4.97;;;8.90;99.90;;;;;;5045223;28;20510;-83
2022/04/30 01:04:56;;;;;;;8.63;5.43;;;8.70;99.90;;;;;;5030278;28;20459;-84
2022/04/30 01:07:23;;;;;;;6.03;4.03;;;8.70;99.90;;;;;;5045138;28;20482;-83
2022/04/30 01:09:53;;;;;;;6.80;4.57;;;8.70;99.90;;;;;;5043026;28;20451;-83
2022/04/30 01:12:22;;;;;;;5.37;4.47;;;8.60;99.90;;;;;;5041895;28;20524;-84
2022/04/30 01:14:52;;;;;;;10.60;4.87;;;8.60;99.90;;;;;;5042845;28;20457;-84
2022/04/30 01:17:19;;;;;;;10.80;4.50;;;8.40;99.90;;;;;;5043479;28;20583;-83
2022/04/30 01:19:47;;;;;;;7.57;5.03;;;8.40;99.90;;;;;;5042695;28;20553;-84
2022/04/30 01:22:21;;;;;;;9.40;5.07;;;8.40;99.90;;;;;;5042585;28;20989;-85
2022/04/30 01:24:50;;;;;;;11.10;4.57;;;8.40;99.90;;;;;;5043430;28;20457;-84
2022/04/30 01:27:17;;;;;;;6.90;4.40;;;8.30;99.90;;;;;;5038175;28;20486;-84
2022/04/30 01:29:45;;;;;;;4.93;3.60;;;8.40;99.90;;;;;;5042590;28;20467;-83
2022/04/30 01:37:40;;;;;;;7.57;5.00;;;8.30;99.90;;;;;;5042951;28;20475;-82
2022/04/30 01:40:10;;;;;;;8.47;4.60;;;8.20;99.90;;;;;;5041388;28;20450;-82
2022/04/30 01:42:39;;;;;;;6.40;4.10;;;8.20;99.90;;;;;;5041937;28;20571;-81
2022/04/30 01:45:08;;;;;;;9.60;4.13;;;8.20;99.90;;;;;;5041815;28;20803;-82
2022/04/30 01:47:37;;;;;;;5.97;4.33;;;8.10;99.90;;;;;;5041862;28;20519;-82
2022/04/30 01:50:05;;;;;;;8.20;5.50;;;8.10;99.90;;;;;;5041572;28;20524;-82
2022/04/30 01:52:32;;;;;;;11.23;5.00;;;8.00;99.90;;;;;;5042346;28;20455;-83
2022/04/30 01:55:00;;;;;;;7.50;4.93;;;7.90;99.90;;;;;;5050616;28;20529;-83
2022/04/30 01:57:28;;;;;;;5.63;4.20;;;7.90;99.90;;;;;;5053196;28;20478;-83
2022/04/30 01:59:55;;;;;;;6.30;3.80;;;7.90;99.90;;;;;;5053443;28;20460;-83
2022/04/30 02:02:25;;;;;;;6.10;3.70;;;7.80;99.90;;;;;;5052598;28;20487;-84
2022/04/30 02:04:54;;;;;;;8.73;4.53;;;7.70;99.90;;;;;;5044500;28;20450;-83
2022/04/30 02:07:21;;;;;;;6.47;4.50;;;7.70;99.90;;;;;;5042508;28;20495;-83
2022/04/30 02:09:51;;;;;;;11.00;5.80;;;7.60;99.90;;;;;;5041989;28;20987;-84
2022/04/30 02:12:18;;;;;;;4.97;4.20;;;7.60;99.90;;;;;;5042827;28;20500;-84
2022/04/30 02:14:52;;;;;;;7.23;5.10;;;7.60;99.90;;;;;;5042172;28;20476;-83
2022/04/30 02:17:20;;;;;;;9.30;3.90;;;7.50;99.90;;;;;;5042141;28;20468;-84
2022/04/30 02:22:34;;;;;;;5.87;4.00;;;7.50;99.90;;;;;;5042414;28;20489;-83
2022/04/30 02:25:02;;;;;;;6.83;4.27;;;7.30;99.90;;;;;;5041761;28;20460;-84
2022/04/30 02:27:30;;;;;;;8.03;4.10;;;7.30;99.90;;;;;;5042411;28;20477;-84
2022/04/30 02:29:58;;;;;;;6.87;4.00;;;7.30;99.90;;;;;;5041940;28;20453;-84
2022/04/30 02:32:25;;;;;;;10.97;5.03;;;7.20;99.90;;;;;;5043064;28;20666;-84
2022/04/30 02:34:52;;;;;;;7.43;4.70;;;7.20;99.90;;;;;;5040951;28;20527;-83
2022/04/30 02:37:21;;;;;;;5.40;3.90;;;7.20;99.90;;;;;;5036547;28;21012;-84
2022/04/30 02:39:48;;;;;;;8.50;4.43;;;7.20;99.90;;;;;;5029917;28;20462;-84
2022/04/30 02:42:15;;;;;;;9.07;5.93;;;7.10;99.90;;;;;;5028132;28;20484;-84
2022/04/30 02:44:41;;;;;;;8.20;4.23;;;7.10;99.90;;;;;;5043314;28;20452;-84
2022/04/30 02:47:09;;;;;;;8.30;5.27;;;7.10;99.90;;;;;;5041056;28;20484;-83
2022/04/30 02:49:38;;;;;;;7.73;4.57;;;7.10;99.90;;;;;;5041717;28;20458;-84
2022/04/30 02:52:05;;;;;;;6.80;4.00;;;6.90;99.90;;;;;;5042235;28;20460;-84
2022/04/30 02:54:34;;;;;;;6.93;4.47;;;7.00;99.90;;;;;;5041891;28;20448;-83
2022/04/30 02:57:01;;;;;;;8.27;4.73;;;6.90;99.90;;;;;;5041172;28;21079;-82
2022/04/30 03:02:13;;;;;;;7.10;4.40;;;6.90;99.90;;;;;;5041076;28;20502;-84
2022/04/30 03:04:40;;;;;;;9.50;5.13;;;6.90;99.90;;;;;;5041865;28;20814;-83
2022/04/30 03:07:11;;;;;;;11.30;5.37;;;6.90;99.90;;;;;;5041703;28;20470;-82
2022/04/30 03:09:38;;;;;;;9.20;4.87;;;6.90;99.90;;;;;;5040700;28;20555;-82
2022/04/30 03:12:07;;;;;;;7.47;5.00;;;6.90;99.90;;;;;;5039890;28;20458;-82
2022/04/30 03:14:34;;;;;;;9.20;5.07;;;6.80;99.90;;;;;;5042192;28;20457;-84
2022/04/30 03:22:31;;;;;;;7.40;4.77;;;6.80;99.90;;;;;;5041572;28;20490;-82
2022/04/30 03:24:58;;;;;;;8.13;4.70;;;6.70;99.90;;;;;;5041317;28;20459;-83
2022/04/30 03:27:25;;;;;;;10.90;5.03;;;6.70;99.90;;;;;;5041822;28;20547;-84
2022/04/30 03:29:52;;;;;;;7.60;4.40;;;6.70;99.90;;;;;;5041686;28;20458;-83
2022/04/30 03:32:19;;;;;;;7.53;5.67;;;6.60;99.90;;;;;;5040248;28;20484;-82
2022/04/30 03:34:48;;;;;;;7.23;5.60;;;6.60;99.90;;;;;;5041056;28;20472;-82
2022/04/30 03:37:14;;;;;;;10.07;6.17;;;6.60;99.90;;;;;;5041143;28;20495;-83
2022/04/30 03:39:41;;;;;;;10.03;4.67;;;6.50;99.90;;;;;;5040513;28;20491;-83
2022/04/30 03:42:08;;;;;;;10.17;6.67;;;6.50;99.90;;;;;;5041057;28;20491;-84
2022/04/30 03:44:35;;;;;;;8.37;5.50;;;6.40;99.90;;;;;;5042041;28;20462;-84
2022/04/30 03:47:02;;;;;;;7.50;5.50;;;6.40;99.90;;;;;;5042152;28;20471;-82
2022/04/30 03:49:29;;;;;;;9.67;5.60;;;6.40;99.90;;;;;;5041322;28;20452;-81
2022/04/30 03:51:57;;;;;;;11.73;6.27;;;6.40;99.90;;;;;;5043653;28;20458;-82
2022/04/30 03:54:24;;;;;;;7.37;4.67;;;6.40;99.90;;;;;;5043825;28;20456;-84
2022/04/30 03:56:50;;;;;;;8.80;6.20;;;6.40;99.90;;;;;;5044821;28;20484;-84
2022/04/30 03:59:17;;;;;;;7.03;5.10;;;6.40;99.90;;;;;;5043541;28;20461;-82
2022/04/30 04:01:44;;;;;;;10.23;6.47;;;6.30;99.90;;;;;;5042668;28;20457;-82
2022/04/30 04:04:11;;;;;;;10.30;6.20;;;6.30;99.90;;;;;;5044967;28;20460;-83
2022/04/30 04:06:37;;;;;;;8.60;6.57;;;6.30;99.90;;;;;;5043725;28;20486;-84
2022/04/30 04:09:06;;;;;;;9.83;6.73;;;6.30;99.90;;;;;;5044733;28;20449;-84
2022/04/30 04:11:32;;;;;;;10.70;5.53;;;6.20;99.90;;;;;;5043455;28;20453;-81
2022/04/30 04:19:30;;;;;;;8.40;5.20;;;6.20;99.90;;;;;;5038291;28;20453;-81
2022/04/30 04:21:57;;;;;;;9.90;5.03;;;6.10;99.90;;;;;;5038162;28;20457;-81
2022/04/30 04:27:09;;;;;;;13.67;5.50;;;6.20;99.90;;;;;;5038448;28;20478;-81
2022/04/30 04:29:36;;;;;;;10.97;6.10;;;6.20;99.90;;;;;;5037488;28;20453;-81
2022/04/30 04:32:03;;;;;;;9.97;6.93;;;6.20;99.90;;;;;;5038833;28;20513;-81
2022/04/30 04:34:30;;;;;;;11.47;6.43;;;6.10;99.90;;;;;;5042775;28;20457;-80
2022/04/30 04:36:57;;;;;;;8.93;6.23;;;6.10;99.90;;;;;;5038179;28;20467;-82
2022/04/30 04:39:25;;;;;;;9.30;5.93;;;6.10;99.90;;;;;;5039800;28;20540;-84
2022/04/30 04:41:52;;;;;;;13.37;5.20;;;6.10;99.90;;;;;;5042538;28;20460;-84
2022/04/30 04:44:21;;;;;;;7.43;5.37;;;6.20;99.90;;;;;;5043506;28;20464;-84
2022/04/30 04:46:47;;;;;;;10.20;6.20;;;6.20;99.90;;;;;;5040591;28;20514;-84
2022/04/30 04:49:15;;;;;;;8.63;4.97;;;6.10;99.90;;;;;;5041412;28;20455;-84
2022/04/30 04:51:42;;;;;;;8.33;5.67;;;6.20;99.90;;;;;;5042200;28;20455;-84
2022/04/30 04:54:08;;;;;;;11.80;6.97;;;6.30;99.90;;;;;;5041093;28;20494;-82
2022/04/30 04:56:37;;;;;;;7.53;5.43;;;6.40;99.90;;;;;;5038590;28;20478;-82
2022/04/30 04:59:03;;;;;;;13.07;5.93;;;6.40;99.90;;;;;;5038497;28;20451;-82
2022/04/30 05:01:30;;;;;;;12.43;7.13;;;6.30;99.90;;;;;;5038857;28;20452;-82
2022/04/30 05:03:57;;;;;;;8.90;5.47;;;6.30;99.90;;;;;;5039027;28;20467;-82
2022/04/30 05:06:24;;;;;;;9.40;6.07;;;6.40;99.90;;;;;;5038216;28;21007;-81
2022/04/30 05:08:51;;;;;;;9.67;5.67;;;6.40;99.90;;;;;;5037308;28;20980;-82
2022/04/30 05:11:17;;;;;;;9.50;5.60;;;6.40;99.90;;;;;;5038349;28;21154;-81
2022/04/30 05:13:45;;;;;;;8.37;5.10;;;6.50;99.90;;;;;;5037962;28;20491;-81
2022/04/30 05:16:12;;;;;;;10.63;5.27;;;6.50;99.90;;;;;;5037825;28;20536;-81
2022/04/30 05:18:39;;;;;;;9.87;6.00;;;6.50;99.90;;;;;;5037033;28;20444;-81
2022/04/30 05:21:06;;;;;;;7.57;5.90;;;6.50;99.90;;;;;;5037361;28;21143;-81
2022/04/30 05:23:33;;;;;;;11.73;6.03;;;6.60;99.90;;;;;;5037401;28;20985;-81
2022/04/30 05:26:00;;;;;;;8.67;6.10;;;6.60;99.90;;;;;;5037679;28;20811;-81
2022/04/30 05:28:26;;;;;;;13.97;6.57;;;6.60;99.90;;;;;;5072552;22;20497;-79
2022/04/30 05:30:55;;;;;;;15.00;5.87;;;6.60;99.90;;;;;;5062392;28;20960;-79
2022/04/30 05:33:22;;;;;;;7.30;5.37;;;6.70;99.90;;;;;;5074401;28;20482;-79
2022/04/30 05:35:49;;;;;;;8.80;5.80;;;6.70;99.90;;;;;;5074265;28;20587;-80
2022/04/30 05:38:15;;;;;;;12.00;5.10;;;6.70;99.90;;;;;;5074056;28;20985;-79
2022/04/30 05:40:42;;;;;;;10.00;5.73;;;6.70;99.90;;;;;;5073148;28;20462;-81
2022/04/30 05:43:09;;;;;;;8.03;5.70;;;6.80;99.90;;;;;;5071846;28;20451;-81
2022/04/30 05:45:36;;;;;;;7.47;5.20;;;7.00;99.90;;;;;;5075216;28;20465;-81
2022/04/30 05:48:04;;;;;;;9.13;6.07;;;7.00;99.90;;;;;;5066158;28;20486;-79
2022/04/30 05:50:31;;;;;;;10.30;5.87;;;7.00;99.90;;;;;;5078139;28;20549;-79
2022/04/30 05:53:04;;;;;;;12.60;6.27;;;7.10;99.90;;;;;;5071562;28;20574;-82
2022/04/30 05:55:31;;;;;;;7.37;4.93;;;7.30;99.90;;;;;;5070986;28;20531;-81
2022/04/30 05:57:58;;;;;;;12.77;5.70;;;7.20;99.90;;;;;;5070722;28;20474;-82
2022/04/30 06:00:28;;;;;;;10.60;5.33;;;7.30;99.90;;;;;;5071086;28;20456;-82
2022/04/30 06:02:55;;;;;;;12.13;6.40;;;7.50;99.90;;;;;;5073839;28;20443;-81
2022/04/30 06:05:26;;;;;;;8.40;4.80;;;7.60;99.90;;;;;;5073210;28;20458;-81
2022/04/30 06:07:53;;;;;;;9.57;5.57;;;7.70;99.90;;;;;;5073584;28;20844;-80
2022/04/30 06:10:21;;;;;;;8.87;5.20;;;7.90;99.90;;;;;;5071613;28;20466;-82
2022/04/30 06:12:47;;;;;;;8.23;5.50;;;8.10;99.90;;;;;;5073561;28;20484;-82
2022/04/30 06:15:14;;;;;;;8.33;4.90;;;8.40;99.90;;;;;;5073565;28;20465;-82
2022/04/30 06:17:41;;;;;;;10.03;5.67;;;8.70;99.90;;;;;;5073861;28;20490;-83
2022/04/30 06:20:09;;;;;;;11.57;5.30;;;9.00;99.90;;;;;;5074500;28;20460;-82
2022/04/30 06:22:37;;;;;;;9.60;5.00;;;9.20;99.90;;;;;;5076126;28;20451;-81
2022/04/30 06:25:05;;;;;;;10.10;4.83;;;9.50;99.90;;;;;;5074430;28;20456;-81
2022/04/30 06:27:32;;;;;;;8.43;6.40;;;9.70;99.90;;;;;;5073332;28;20458;-82
2022/04/30 06:29:59;;;;;;;7.30;5.13;;;9.90;99.90;;;;;;5071847;28;20969;-80
2022/04/30 06:32:26;;;;;;;7.60;4.27;;;9.80;99.90;;;;;;5072616;28;20456;-80
2022/04/30 06:34:53;;;;;;;11.57;5.10;;;9.80;99.90;;;;;;5073773;28;20537;-81
2022/04/30 06:37:23;;;;;;;9.90;5.20;;;9.80;99.90;;;;;;5073863;28;20452;-81
2022/04/30 06:39:51;;;;;;;7.97;4.53;;;9.90;99.90;;;;;;5072965;28;20446;-80
2022/04/30 06:42:23;;;;;;;6.93;4.60;;;10.00;99.90;;;;;;5073060;28;20456;-81
2022/04/30 06:44:51;;;;;;;9.50;5.60;;;9.80;99.90;;;;;;5073410;28;20863;-80
2022/04/30 06:47:20;;;;;;;11.07;5.97;;;9.70;99.90;;;;;;5073534;28;20463;-79
2022/04/30 06:49:51;;;;;;;8.40;4.93;;;9.70;99.90;;;;;;5072818;28;20564;-80
2022/04/30 06:52:21;;;;;;;7.80;4.80;;;9.70;99.90;;;;;;5072930;28;20460;-80
2022/04/30 06:57:36;;;;;;;7.17;5.07;;;9.80;99.90;;;;;;5072597;28;20433;-82
2022/04/30 07:01:24;;;;;;;11.33;5.47;;;9.80;99.90;;;;;;5073639;28;20464;-80
2022/04/30 07:02:55;;;;;;;8.87;4.30;;;10.10;99.90;;;;;;5071075;28;20504;-81
2022/04/30 07:05:24;;;;;;;7.07;4.60;;;10.10;99.90;;;;;;5073084;28;20469;-80
2022/04/30 07:07:53;;;;;;;8.07;4.53;;;10.20;99.90;;;;;;5073460;28;20467;-81
2022/04/30 07:10:20;;;;;;;6.80;4.50;;;10.20;99.90;;;;;;5073059;28;20463;-80
2022/04/30 07:12:51;;;;;;;7.30;4.77;;;10.20;99.90;;;;;;5073055;28;20458;-80
2022/04/30 07:15:20;;;;;;;7.37;4.83;;;10.40;99.90;;;;;;5074152;28;20897;-81
2022/04/30 07:17:47;;;;;;;10.23;4.77;;;10.50;99.90;;;;;;5073670;28;20564;-81
2022/04/30 07:20:16;;;;;;;6.17;4.77;;;10.60;99.90;;;;;;5073210;28;20451;-81
2022/04/30 07:22:46;;;;;;;8.23;4.47;;;10.80;99.90;;;;;;5073300;28;20519;-80
2022/04/30 07:25:15;;;;;;;5.17;3.87;;;11.20;99.90;;;;;;5073453;28;20943;-80
2022/04/30 07:27:45;;;;;;;7.67;4.13;;;11.10;99.90;;;;;;5072148;28;20484;-80
2022/04/30 07:30:24;;;;;;;7.00;4.40;;;11.10;99.90;;;;;;5072534;28;20895;-79
2022/04/30 07:32:51;;;;;;;6.70;4.57;;;11.30;99.90;;;;;;5072361;28;20495;-80
2022/04/30 07:35:25;;;;;;;6.10;4.43;;;11.00;99.90;;;;;;5072015;28;20966;-80
2022/04/30 07:37:52;;;;;;;8.77;5.10;;;11.20;99.90;;;;;;5073340;28;20556;-80
2022/04/30 07:40:19;;;;;;;7.60;3.77;;;11.10;99.90;;;;;;5073312;28;20454;-82
2022/04/30 07:42:46;;;;;;;7.47;3.20;;;11.10;99.90;;;;;;5074476;28;20979;-80
2022/04/30 07:45:13;;;;;;;7.07;3.97;;;10.80;99.90;;;;;;5072458;28;20447;-82
2022/04/30 07:47:41;;;;;;;8.60;4.07;;;11.00;99.90;;;;;;5075874;28;20994;-80
2022/04/30 07:50:09;;;;;;;11.27;3.77;;;11.40;99.90;;;;;;5076608;28;20541;-82
2022/04/30 07:52:35;;;;;;;6.73;4.10;;;11.60;99.90;;;;;;5076201;28;20541;-82
2022/04/30 07:55:02;;;;;;;5.90;3.83;;;11.50;99.90;;;;;;5074884;28;20486;-81
2022/04/30 07:57:29;;;;;;;5.23;3.70;;;11.40;99.90;;;;;;5074394;28;20563;-82
2022/04/30 07:59:56;;;;;;;9.30;4.40;;;11.20;99.90;;;;;;5077065;28;20522;-81
2022/04/30 08:02:23;;;;;;;8.43;3.87;;;11.00;99.90;;;;;;5075590;28;20450;-81
2022/04/30 08:04:53;;;;;;;10.50;4.60;;;10.90;99.90;;;;;;5075702;28;20477;-81
2022/04/30 08:07:20;;;;;;;5.30;4.23;;;10.80;99.90;;;;;;5076132;28;20460;-82
2022/04/30 08:09:46;;;;;;;5.63;3.50;;;10.90;99.90;;;;;;5075813;28;20461;-81
2022/04/30 08:12:13;;;;;;;8.53;4.20;;;11.20;99.90;;;;;;5075471;28;20476;-81
2022/04/30 08:14:40;;;;;;;10.70;4.20;;;12.10;99.90;;;;;;5075445;28;20557;-82
2022/04/30 08:17:07;;;;;;;6.17;3.37;;;12.90;99.90;;;;;;5068988;28;20546;-81
2022/04/30 08:19:34;;;;;;;5.90;3.40;;;13.70;99.90;;;;;;5072334;28;20475;-81
2022/04/30 08:22:02;;;;;;;5.97;3.90;;;14.40;99.90;;;;;;5073873;28;20818;-81
2022/04/30 08:24:28;;;;;;;6.50;3.73;;;13.20;99.90;;;;;;5074156;28;20460;-82
2022/04/30 08:26:56;;;;;;;5.77;3.10;;;12.90;99.90;;;;;;5074293;28;20459;-81
2022/04/30 08:29:23;;;;;;;4.33;2.90;;;14.40;99.90;;;;;;5074335;28;20836;-81
2022/04/30 08:31:50;;;;;;;5.60;2.80;;;16.50;99.90;;;;;;5075861;28;20464;-81
2022/04/30 08:34:17;;;;;;;5.93;3.10;;;17.90;99.90;;;;;;5079020;28;20517;-82
2022/04/30 08:36:44;;;;;;;5.30;2.60;;;19.80;99.90;;;;;;5080287;28;20455;-81
2022/04/30 08:39:12;;;;;;;6.47;3.87;;;21.40;99.90;;;;;;5079259;28;21089;-81
2022/04/30 08:41:42;;;;;;;4.87;3.30;;;22.50;99.90;;;;;;5081251;28;20955;-81
2022/04/30 08:44:13;;;;;;;4.57;3.37;;;21.00;97.90;;;;;;5078339;28;20448;-82
2022/04/30 08:46:40;;;;;;;5.10;3.20;;;20.00;98.50;;;;;;5079834;28;21125;-82
2022/04/30 08:49:07;;;;;;;5.97;3.23;;;20.00;96.50;;;;;;5079646;28;20465;-80
2022/04/30 08:51:34;;;;;;;5.20;2.83;;;18.30;96.20;;;;;;5079464;28;20482;-81
2022/04/30 08:54:01;;;;;;;5.53;3.43;;;18.80;99.50;;;;;;5079530;28;20494;-82
2022/04/30 08:56:29;;;;;;;6.77;3.70;;;18.60;97.20;;;;;;5085643;28;20490;-81
2022/04/30 08:59:00;;;;;;;4.43;3.00;;;18.50;97.70;;;;;;5079276;28;20462;-81
2022/04/30 09:01:27;;;;;;;4.97;2.60;;;19.00;97.60;;;;;;5079067;28;20452;-81
2022/04/30 09:03:56;;;;;;;5.60;2.97;;;19.60;99.50;;;;;;5078702;28;20804;-80
2022/04/30 09:06:23;;;;;;;5.67;3.57;;;20.30;97.20;;;;;;5078679;28;20440;-80
2022/04/30 09:08:51;;;;;;;3.50;2.47;;;21.70;96.40;;;;;;5074817;28;20846;-80
2022/04/30 09:11:18;;;;;;;3.57;2.70;;;23.30;93.00;;;;;;5075595;28;20466;-81
2022/04/30 09:13:47;;;;;;;4.33;3.27;;;22.80;91.20;;;;;;5075094;28;20482;-82
2022/04/30 09:16:20;;;;;;;4.60;3.20;;;23.00;90.70;;;;;;5076781;28;20458;-82
2022/04/30 09:18:47;;;;;;;4.87;3.50;;;23.30;89.90;;;;;;5077260;28;20474;-82
2022/04/30 09:21:15;;;;;;;4.17;3.50;;;22.90;88.20;;;;;;5075297;28;20447;-81
2022/04/30 09:23:43;;;;;;;6.90;4.00;;;21.10;85.00;;;;;;5075468;28;20488;-81
2022/04/30 09:26:10;;;;;;;7.97;3.23;;;19.60;88.60;;;;;;5077603;28;20457;-81
2022/04/30 09:28:38;;;;;;;5.00;3.50;;;19.50;88.10;;;;;;5077329;28;20872;-82
2022/04/30 09:31:13;;;;;;;4.80;2.70;;;19.10;86.60;;;;;;5076459;28;20453;-82
2022/04/30 09:33:55;;;;;;;5.97;3.23;;;20.20;88.80;;;;;;5076712;28;21025;-81
2022/04/30 09:39:13;;;;;;;6.90;3.17;;;20.50;86.40;;;;;;5075139;28;20508;-80
2022/04/30 09:41:40;;;;;;;4.77;3.20;;;20.50;87.40;;;;;;5076364;28;20500;-82
2022/04/30 09:44:09;;;;;;;3.77;2.90;;;21.00;83.00;;;;;;5075868;28;20446;-82
2022/04/30 09:46:39;;;;;;;4.03;2.57;;;20.90;79.30;;;;;;5076646;28;20459;-81
2022/04/30 09:54:39;;;;;;;7.37;2.70;;;22.00;82.90;;;;;;5076266;28;20867;-82
2022/04/30 09:57:09;;;;;;;4.40;2.80;;;23.70;85.50;;;;;;5075542;28;20830;-84
2022/04/30 09:59:37;;;;;;;4.43;2.93;;;25.40;75.70;;;;;;5078342;28;20463;-82
2022/04/30 10:02:07;;;;;;;3.93;2.83;;;26.70;74.80;;;;;;5075754;28;20482;-82
2022/04/30 10:04:35;;;;;;;3.67;2.43;;;27.30;69.80;;;;;;5071050;28;20447;-83
2022/04/30 10:07:03;;;;;;;4.53;2.87;;;27.60;70.00;;;;;;5076859;28;20454;-84
2022/04/30 10:09:35;;;;;;;4.17;3.17;;;28.10;65.40;;;;;;5076758;28;20467;-83
2022/04/30 10:12:11;;;;;;;3.70;2.90;;;26.90;58.30;;;;;;5072806;28;20439;-81
2022/04/30 10:15:00;;;;;;;4.83;2.90;;;26.10;59.90;;;;;;5078005;28;20569;-83
2022/04/30 10:17:34;;;;;;;3.30;2.80;;;27.30;57.90;;;;;;5074541;28;20446;-81
2022/04/30 10:20:06;;;;;;;3.43;3.10;;;27.60;57.60;;;;;;5074836;28;20455;-83
2022/04/30 10:22:33;;;;;;;3.03;2.30;;;26.70;53.50;;;;;;5071097;28;20471;-82
2022/04/30 10:25:00;;;;;;;3.70;2.10;;;25.80;55.80;;;;;;5074644;28;20439;-82
2022/04/30 10:27:39;;;;;;;3.23;2.30;;;27.60;57.80;;;;;;5072226;28;20446;-81
2022/04/30 10:30:17;;;;;;;3.47;2.50;;;29.00;58.30;;;;;;5072709;28;20446;-82
2022/04/30 10:32:56;;;;;;;7.30;2.83;;;31.20;54.70;;;;;;5073762;28;21003;-83
2022/04/30 10:35:29;;;;;;;4.00;3.10;;;31.10;51.70;;;;;;5074409;28;20572;-83
2022/04/30 10:38:09;;;;;;;4.70;3.63;;;30.90;53.00;;;;;;5078397;28;20521;-82
2022/04/30 10:40:45;;;;;;;3.30;2.63;;;29.30;49.70;;;;;;5078137;28;21080;-82
2022/04/30 10:43:19;;;;;;;3.97;3.00;;;29.60;49.90;;;;;;5077710;28;20443;-83
2022/04/30 10:45:47;;;;;;;5.40;2.90;;;31.70;52.50;;;;;;5078353;28;20492;-82
2022/04/30 10:48:18;;;;;;;3.60;2.77;;;32.40;48.70;;;;;;5072622;28;20913;-81
2022/04/30 10:50:45;;;;;;;3.80;2.93;;;32.70;48.50;;;;;;5077206;28;20518;-83
2022/04/30 10:53:15;;;;;;;4.27;2.60;;;31.10;46.20;;;;;;5077020;28;20451;-82
2022/04/30 10:55:42;;;;;;;4.60;3.07;;;29.50;47.20;;;;;;5075937;28;20451;-82
2022/04/30 10:58:09;;;;;;;4.80;3.53;;;27.10;48.50;;;;;;5074734;28;20478;-82
2022/04/30 11:00:36;;;;;;;5.93;3.60;;;25.30;49.20;;;;;;5077981;28;20529;-82
2022/04/30 11:03:12;;;;;;;4.30;3.40;;;24.10;51.30;;;;;;5077966;28;20447;-82
2022/04/30 11:05:43;;;;;;;4.17;2.90;;;21.50;51.80;;;;;;5076904;28;20525;-81
2022/04/30 11:08:10;;;;;;;3.73;2.87;;;22.60;54.80;;;;;;5077253;28;20477;-81
2022/04/30 11:10:56;;;;;;;3.10;2.70;;;25.50;55.50;;;;;;5063743;28;20456;-80
2022/04/30 11:16:19;;;;;;;3.97;2.77;;;29.40;50.90;;;;;;5069247;28;20931;-82
2022/04/30 11:18:59;;;;;;;4.53;3.00;;;30.40;47.80;;;;;;5093195;22;20562;-82
2022/04/30 11:21:39;;;;;;;3.20;2.47;;;31.30;48.30;;;;;;5045712;28;20451;-82
2022/04/30 11:24:11;;;;;;;2.97;2.27;;;32.30;46.10;;;;;;5068077;28;20451;-83
2022/04/30 11:26:38;;;;;;;6.10;2.57;;;31.50;45.20;;;;;;5051820;28;20456;-83
2022/04/30 11:29:20;;;;;;;4.33;2.73;;;28.90;46.20;;;;;;5043231;28;20480;-82
2022/04/30 11:32:08;;;;;;;4.10;2.80;;;26.20;47.00;;;;;;5048982;28;20464;-82
2022/04/30 11:34:42;;;;;;;3.90;2.57;;;25.20;50.00;;;;;;5022326;28;20456;-81
2022/04/30 11:37:10;;;;;;;4.10;3.20;;;25.20;50.20;;;;;;5048995;28;20911;-82
2022/04/30 11:39:37;;;;;;;4.30;2.60;;;24.00;48.70;;;;;;5036410;28;20519;-81
2022/04/30 11:42:05;;;;;;;5.00;2.90;;;23.50;51.20;;;;;;5035896;28;20464;-81
2022/04/30 11:44:42;;;;;;;4.70;3.03;;;23.20;49.90;;;;;;5030923;28;21065;-81
2022/04/30 11:47:09;;;;;;;6.53;3.13;;;21.50;51.10;;;;;;5025006;28;20460;-82
2022/04/30 11:49:44;;;;;;;3.80;3.03;;;21.70;53.00;;;;;;5045645;28;20496;-83
2022/04/30 11:52:26;;;;;;;5.60;2.83;;;24.70;53.00;;;;;;5043312;28;20482;-81
2022/04/30 11:55:11;;;;;;;5.87;2.70;;;28.60;52.10;;;;;;5021719;28;20549;-83
2022/04/30 11:57:45;;;;;;;5.50;3.40;;;28.70;47.10;;;;;;5018028;28;20483;-83
2022/04/30 12:00:14;;;;;;;4.00;2.90;;;25.30;47.40;;;;;;5036460;28;20489;-81
2022/04/30 12:02:50;;;;;;;5.57;3.50;;;24.00;50.30;;;;;;5025353;28;20485;-81
2022/04/30 12:05:20;;;;;;;5.80;2.23;;;22.90;49.10;;;;;;5011598;28;20564;-81
2022/04/30 12:08:04;;;;;;;2.97;2.30;;;22.00;50.30;;;;;;5023404;28;20508;-80
2022/04/30 12:10:42;;;;;;;3.60;1.97;;;24.90;52.90;;;;;;5033707;28;20474;-82
2022/04/30 12:13:23;;;;;;;3.50;2.30;;;27.90;51.50;;;;;;5026590;28;20895;-82
2022/04/30 12:15:50;;;;;;;3.10;2.20;;;30.90;47.40;;;;;;5038056;28;20456;-82
2022/04/30 12:24:43;;;;;;;3.27;2.37;;;31.10;43.00;;;;;;5037519;28;20485;-81
2022/04/30 12:30:01;;;;;;;4.27;2.70;;;30.10;44.20;;;;;;5111735;22;20481;-80
2022/04/30 12:32:52;;;;;;;3.70;2.40;;;28.00;43.10;;;;;;5041624;28;20452;-81
2022/04/30 12:35:38;;;;;;;4.10;2.60;;;26.90;48.20;;;;;;5054584;28;20493;-81
2022/04/30 12:38:10;;;;;;;3.60;2.67;;;25.00;45.50;;;;;;5055380;28;20831;-81
2022/04/30 12:41:02;;;;;;;3.27;2.40;;;23.50;48.60;;;;;;5054728;28;20518;-80
2022/04/30 12:43:43;;;;;;;5.90;2.53;;;23.10;49.80;;;;;;5054639;28;20890;-80
2022/04/30 12:46:25;;;;;;;4.87;2.17;;;26.50;49.80;;;;;;5054813;28;20483;-81
2022/04/30 12:48:53;;;;;;;3.70;2.77;;;29.90;47.60;;;;;;5056513;28;20507;-80
2022/04/30 12:51:22;;;;;;;3.67;1.93;;;28.30;44.80;;;;;;5049259;28;20471;-80
2022/04/30 12:53:51;;;;;;;3.77;2.20;;;26.20;48.00;;;;;;5042651;28;20452;-81
2022/04/30 12:56:24;;;;;;;3.90;2.50;;;27.10;49.80;;;;;;5047677;28;20462;-81
2022/04/30 12:58:51;;;;;;;4.83;2.47;;;27.70;50.70;;;;;;5053993;28;20471;-81
2022/04/30 13:01:18;;;;;;;4.13;2.17;;;27.70;50.00;;;;;;5057004;28;21008;-81
2022/04/30 13:03:45;;;;;;;4.43;2.27;;;27.00;47.80;;;;;;5057806;28;20550;-80
2022/04/30 13:06:12;;;;;;;4.30;2.30;;;25.30;46.00;;;;;;5056754;28;20555;-81
2022/04/30 13:14:09;;;;;;;3.37;2.17;;;22.70;50.40;;;;;;5019195;28;20472;-81
2022/04/30 13:16:36;;;;;;;2.90;2.20;;;22.00;50.60;;;;;;5029618;28;20459;-80
2022/04/30 13:19:04;;;;;;;5.57;2.80;;;22.60;51.90;;;;;;5036122;28;20449;-79
2022/04/30 13:21:31;;;;;;;5.40;2.67;;;22.90;49.90;;;;;;5035954;28;20481;-82
2022/04/30 13:23:57;;;;;;;3.20;2.40;;;23.80;52.20;;;;;;5031560;28;20544;-79
2022/04/30 13:26:26;;;;;;;4.70;1.77;;;26.50;48.50;;;;;;5028725;28;20480;-81
2022/04/30 13:28:53;;;;;;;2.57;2.10;;;28.70;48.80;;;;;;5029795;28;20464;-81
2022/04/30 13:31:20;;;;;;;2.83;1.70;;;29.10;45.70;;;;;;5034809;28;20487;-82
2022/04/30 13:33:47;;;;;;;2.93;1.90;;;28.50;47.50;;;;;;5034076;28;20453;-80
2022/04/30 13:36:13;;;;;;;2.90;2.07;;;28.80;46.70;;;;;;5041814;28;20525;-83
2022/04/30 13:38:42;;;;;;;3.50;1.97;;;30.60;46.60;;;;;;5032302;28;20828;-80
2022/04/30 13:41:08;;;;;;;4.47;2.20;;;31.80;45.30;;;;;;5031832;28;20449;-82
2022/04/30 13:43:36;;;;;;;3.87;2.30;;;32.90;43.50;;;;;;5035234;28;20912;-81
2022/04/30 13:46:03;;;;;;;3.07;1.90;;;30.00;42.50;;;;;;5030477;28;20588;-79
2022/04/30 13:48:31;;;;;;;4.40;2.90;;;28.40;44.30;;;;;;5022287;28;20571;-80
2022/04/30 13:50:57;;;;;;;4.30;2.63;;;26.00;44.40;;;;;;5035489;28;20461;-79
2022/04/30 13:53:24;;;;;;;4.87;2.50;;;23.60;45.30;;;;;;5027705;28;20918;-82